sensor_id;sensor_type;location;lat;lon;timestamp;P1;durP1;ratioP1;P2;durP2;ratioP2
21120;SDS011;12519;43.318;21.898;2023-03-03T00:01:06;14.0;;;14.0;;
21120;SDS011;12519;43.318;21.898;2023-03-03T00:05:44;14.0;;;14.0;;
21120;SDS011;12519;43.318;21.898;2023-03-03T00:10:20;13.0;;;11.0;;
21120;SDS011;12519;43.318;21.898;2023-03-03T00:14:57;13.0;;;11.0;;
21120;SDS011;12519;43.318;21.898;2023-03-03T00:19:35;14.0;;;11.0;;
21120;SDS011;12519;43.318;21.898;2023-03-03T00:24:16;14.0;;;11.0;;
21120;SDS011;12519;43.318;21.898;2023-03-03T00:29:26;14.0;;;11.0;;
21120;SDS011;12519;43.318;21.898;2023-03-03T00:34:18;14.0;;;11.0;;
21120;SDS011;12519;43.318;21.898;2023-03-03T00:39:10;14.0;;;11.0;;
21120;SDS011;12519;43.318;21.898;2023-03-03T00:44:44;14.0;;;11.0;;
21120;SDS011;12519;43.318;21.898;2023-03-03T00:49:33;14.0;;;11.0;;
21120;SDS011;12519;43.318;21.898;2023-03-03T00:54:11;14.0;;;11.0;;
21120;SDS011;12519;43.318;21.898;2023-03-03T00:58:48;14.0;;;11.0;;
21120;SDS011;12519;43.318;21.898;2023-03-03T01:03:27;12.0;;;10.0;;
21120;SDS011;12519;43.318;21.898;2023-03-03T01:08:04;12.0;;;10.0;;
21120;SDS011;12519;43.318;21.898;2023-03-03T01:12:43;11.0;;;9.0;;
21120;SDS011;12519;43.318;21.898;2023-03-03T01:17:21;11.0;;;9.0;;
21120;SDS011;12519;43.318;21.898;2023-03-03T01:21:59;12.0;;;10.0;;
21120;SDS011;12519;43.318;21.898;2023-03-03T01:26:36;12.0;;;10.0;;
21120;SDS011;12519;43.318;21.898;2023-03-03T01:31:13;13.0;;;11.0;;
21120;SDS011;12519;43.318;21.898;2023-03-03T01:35:50;13.0;;;11.0;;
21120;SDS011;12519;43.318;21.898;2023-03-03T01:40:27;12.0;;;11.0;;
21120;SDS011;12519;43.318;21.898;2023-03-03T01:45:11;12.0;;;11.0;;
21120;SDS011;12519;43.318;21.898;2023-03-03T01:50:02;12.0;;;11.0;;
21120;SDS011;12519;43.318;21.898;2023-03-03T01:55:16;12.0;;;11.0;;
21120;SDS011;12519;43.318;21.898;2023-03-03T02:00:14;12.0;;;11.0;;
21120;SDS011;12519;43.318;21.898;2023-03-03T02:04:54;12.0;;;11.0;;
21120;SDS011;12519;43.318;21.898;2023-03-03T02:09:34;12.0;;;11.0;;
21120;SDS011;12519;43.318;21.898;2023-03-03T02:14:39;13.0;;;11.0;;
21120;SDS011;12519;43.318;21.898;2023-03-03T02:19:16;13.0;;;11.0;;
21120;SDS011;12519;43.318;21.898;2023-03-03T02:24:38;12.0;;;10.0;;
21120;SDS011;12519;43.318;21.898;2023-03-03T02:29:37;12.0;;;10.0;;
21120;SDS011;12519;43.318;21.898;2023-03-03T02:34:15;10.0;;;9.0;;
21120;SDS011;12519;43.318;21.898;2023-03-03T02:38:54;10.0;;;9.0;;
21120;SDS011;12519;43.318;21.898;2023-03-03T02:43:55;11.0;;;10.0;;
21120;SDS011;12519;43.318;21.898;2023-03-03T02:48:44;11.0;;;10.0;;
21120;SDS011;12519;43.318;21.898;2023-03-03T02:53:20;12.0;;;11.0;;
21120;SDS011;12519;43.318;21.898;2023-03-03T02:57:57;12.0;;;11.0;;
21120;SDS011;12519;43.318;21.898;2023-03-03T03:02:34;16.0;;;14.0;;
21120;SDS011;12519;43.318;21.898;2023-03-03T03:07:10;16.0;;;14.0;;
21120;SDS011;12519;43.318;21.898;2023-03-03T03:11:47;19.0;;;16.0;;
21120;SDS011;12519;43.318;21.898;2023-03-03T03:16:24;19.0;;;16.0;;
21120;SDS011;12519;43.318;21.898;2023-03-03T03:21:05;18.0;;;14.0;;
21120;SDS011;12519;43.318;21.898;2023-03-03T03:25:48;18.0;;;14.0;;
21120;SDS011;12519;43.318;21.898;2023-03-03T03:30:26;18.0;;;12.0;;
21120;SDS011;12519;43.318;21.898;2023-03-03T03:35:03;18.0;;;12.0;;
21120;SDS011;12519;43.318;21.898;2023-03-03T03:39:44;18.0;;;12.0;;
21120;SDS011;12519;43.318;21.898;2023-03-03T03:44:21;18.0;;;13.0;;
21120;SDS011;12519;43.318;21.898;2023-03-03T03:48:58;18.0;;;13.0;;
21120;SDS011;12519;43.318;21.898;2023-03-03T03:53:35;18.0;;;14.0;;
21120;SDS011;12519;43.318;21.898;2023-03-03T03:58:13;18.0;;;14.0;;
21120;SDS011;12519;43.318;21.898;2023-03-03T04:02:53;19.0;;;14.0;;
21120;SDS011;12519;43.318;21.898;2023-03-03T04:07:30;19.0;;;14.0;;
21120;SDS011;12519;43.318;21.898;2023-03-03T04:12:06;20.0;;;13.0;;
21120;SDS011;12519;43.318;21.898;2023-03-03T04:16:43;20.0;;;13.0;;
21120;SDS011;12519;43.318;21.898;2023-03-03T04:21:20;16.0;;;12.0;;
21120;SDS011;12519;43.318;21.898;2023-03-03T04:25:57;16.0;;;12.0;;
21120;SDS011;12519;43.318;21.898;2023-03-03T04:30:33;13.0;;;10.0;;
21120;SDS011;12519;43.318;21.898;2023-03-03T04:35:10;13.0;;;10.0;;
21120;SDS011;12519;43.318;21.898;2023-03-03T04:39:47;13.0;;;10.0;;
21120;SDS011;12519;43.318;21.898;2023-03-03T04:44:24;17.0;;;14.0;;
21120;SDS011;12519;43.318;21.898;2023-03-03T04:49:01;17.0;;;14.0;;
21120;SDS011;12519;43.318;21.898;2023-03-03T04:53:38;21.0;;;17.0;;
21120;SDS011;12519;43.318;21.898;2023-03-03T04:58:14;21.0;;;17.0;;
21120;SDS011;12519;43.318;21.898;2023-03-03T05:02:51;21.0;;;18.0;;
21120;SDS011;12519;43.318;21.898;2023-03-03T05:07:27;21.0;;;18.0;;
21120;SDS011;12519;43.318;21.898;2023-03-03T05:12:04;21.0;;;18.0;;
21120;SDS011;12519;43.318;21.898;2023-03-03T05:16:42;21.0;;;18.0;;
21120;SDS011;12519;43.318;21.898;2023-03-03T05:21:20;18.0;;;14.0;;
21120;SDS011;12519;43.318;21.898;2023-03-03T05:25:56;18.0;;;14.0;;
21120;SDS011;12519;43.318;21.898;2023-03-03T05:30:33;16.0;;;11.0;;
21120;SDS011;12519;43.318;21.898;2023-03-03T05:35:12;16.0;;;11.0;;
21120;SDS011;12519;43.318;21.898;2023-03-03T05:39:48;16.0;;;11.0;;
21120;SDS011;12519;43.318;21.898;2023-03-03T05:44:25;17.0;;;13.0;;
21120;SDS011;12519;43.318;21.898;2023-03-03T05:49:02;17.0;;;13.0;;
21120;SDS011;12519;43.318;21.898;2023-03-03T05:53:38;18.0;;;15.0;;
21120;SDS011;12519;43.318;21.898;2023-03-03T05:58:15;18.0;;;15.0;;
21120;SDS011;12519;43.318;21.898;2023-03-03T06:02:52;18.0;;;14.0;;
21120;SDS011;12519;43.318;21.898;2023-03-03T06:07:28;18.0;;;14.0;;
21120;SDS011;12519;43.318;21.898;2023-03-03T06:12:05;17.0;;;14.0;;
21120;SDS011;12519;43.318;21.898;2023-03-03T06:16:42;17.0;;;14.0;;
21120;SDS011;12519;43.318;21.898;2023-03-03T06:21:19;22.0;;;17.0;;
21120;SDS011;12519;43.318;21.898;2023-03-03T06:25:55;22.0;;;17.0;;
21120;SDS011;12519;43.318;21.898;2023-03-03T06:30:32;26.0;;;20.0;;
21120;SDS011;12519;43.318;21.898;2023-03-03T06:35:09;26.0;;;20.0;;
21120;SDS011;12519;43.318;21.898;2023-03-03T06:39:47;26.0;;;20.0;;
21120;SDS011;12519;43.318;21.898;2023-03-03T06:44:24;28.0;;;21.0;;
21120;SDS011;12519;43.318;21.898;2023-03-03T06:49:01;28.0;;;21.0;;
21120;SDS011;12519;43.318;21.898;2023-03-03T06:53:38;29.0;;;22.0;;
21120;SDS011;12519;43.318;21.898;2023-03-03T06:58:16;29.0;;;22.0;;
21120;SDS011;12519;43.318;21.898;2023-03-03T07:02:58;24.0;;;20.0;;
21120;SDS011;12519;43.318;21.898;2023-03-03T07:07:57;24.0;;;20.0;;
21120;SDS011;12519;43.318;21.898;2023-03-03T07:12:34;20.0;;;19.0;;
21120;SDS011;12519;43.318;21.898;2023-03-03T07:17:13;20.0;;;19.0;;
21120;SDS011;12519;43.318;21.898;2023-03-03T07:22:00;22.0;;;20.0;;
21120;SDS011;12519;43.318;21.898;2023-03-03T07:27:00;22.0;;;20.0;;
21120;SDS011;12519;43.318;21.898;2023-03-03T07:32:01;23.0;;;20.0;;
21120;SDS011;12519;43.318;21.898;2023-03-03T07:37:15;23.0;;;20.0;;
21120;SDS011;12519;43.318;21.898;2023-03-03T07:42:17;54.0;;;44.0;;
21120;SDS011;12519;43.318;21.898;2023-03-03T07:47:16;54.0;;;44.0;;
21120;SDS011;12519;43.318;21.898;2023-03-03T07:52:16;86.0;;;68.0;;
21120;SDS011;12519;43.318;21.898;2023-03-03T07:57:18;86.0;;;68.0;;
21120;SDS011;12519;43.318;21.898;2023-03-03T08:02:16;64.0;;;52.0;;
21120;SDS011;12519;43.318;21.898;2023-03-03T08:07:32;64.0;;;52.0;;
21120;SDS011;12519;43.318;21.898;2023-03-03T08:12:15;42.0;;;35.0;;
21120;SDS011;12519;43.318;21.898;2023-03-03T08:17:16;42.0;;;35.0;;
21120;SDS011;12519;43.318;21.898;2023-03-03T08:22:11;33.0;;;28.0;;
21120;SDS011;12519;43.318;21.898;2023-03-03T08:27:05;33.0;;;28.0;;
21120;SDS011;12519;43.318;21.898;2023-03-03T08:31:42;24.0;;;22.0;;
21120;SDS011;12519;43.318;21.898;2023-03-03T08:36:19;24.0;;;22.0;;
21120;SDS011;12519;43.318;21.898;2023-03-03T08:40:56;22.0;;;21.0;;
21120;SDS011;12519;43.318;21.898;2023-03-03T08:45:33;22.0;;;21.0;;
21120;SDS011;12519;43.318;21.898;2023-03-03T08:50:12;22.0;;;21.0;;
21120;SDS011;12519;43.318;21.898;2023-03-03T08:54:54;21.0;;;20.0;;
21120;SDS011;12519;43.318;21.898;2023-03-03T08:59:31;21.0;;;20.0;;
21120;SDS011;12519;43.318;21.898;2023-03-03T09:04:07;22.0;;;20.0;;
21120;SDS011;12519;43.318;21.898;2023-03-03T09:08:45;22.0;;;20.0;;
21120;SDS011;12519;43.318;21.898;2023-03-03T09:13:21;22.0;;;21.0;;
21120;SDS011;12519;43.318;21.898;2023-03-03T09:17:59;22.0;;;21.0;;
21120;SDS011;12519;43.318;21.898;2023-03-03T09:22:57;22.0;;;20.0;;
21120;SDS011;12519;43.318;21.898;2023-03-03T09:28:17;22.0;;;20.0;;
21120;SDS011;12519;43.318;21.898;2023-03-03T09:33:23;22.0;;;20.0;;
21120;SDS011;12519;43.318;21.898;2023-03-03T09:38:25;22.0;;;20.0;;
21120;SDS011;12519;43.318;21.898;2023-03-03T09:43:18;18.0;;;17.0;;
21120;SDS011;12519;43.318;21.898;2023-03-03T09:48:58;18.0;;;17.0;;
21120;SDS011;12519;43.318;21.898;2023-03-03T09:54:12;14.0;;;14.0;;
21120;SDS011;12519;43.318;21.898;2023-03-03T10:00:05;14.0;;;14.0;;
21120;SDS011;12519;43.318;21.898;2023-03-03T10:05:32;18.0;;;14.0;;
21120;SDS011;12519;43.318;21.898;2023-03-03T10:10:42;18.0;;;14.0;;
21120;SDS011;12519;43.318;21.898;2023-03-03T10:15:57;22.0;;;14.0;;
21120;SDS011;12519;43.318;21.898;2023-03-03T10:22:27;20.0;;;14.0;;
21120;SDS011;12519;43.318;21.898;2023-03-03T10:27:46;20.0;;;14.0;;
21120;SDS011;12519;43.318;21.898;2023-03-03T10:33:38;19.0;;;15.0;;
21120;SDS011;12519;43.318;21.898;2023-03-03T10:39:15;19.0;;;15.0;;
21120;SDS011;12519;43.318;21.898;2023-03-03T10:45:01;22.0;;;18.0;;
21120;SDS011;12519;43.318;21.898;2023-03-03T10:50:52;22.0;;;18.0;;
21120;SDS011;12519;43.318;21.898;2023-03-03T10:56:07;24.0;;;22.0;;
21120;SDS011;12519;43.318;21.898;2023-03-03T11:01:25;40.0;;;34.0;;
21120;SDS011;12519;43.318;21.898;2023-03-03T11:06:35;40.0;;;34.0;;
21120;SDS011;12519;43.318;21.898;2023-03-03T11:11:41;57.0;;;45.0;;
21120;SDS011;12519;43.318;21.898;2023-03-03T11:16:39;57.0;;;45.0;;
21120;SDS011;12519;43.318;21.898;2023-03-03T11:21:40;43.0;;;34.0;;
21120;SDS011;12519;43.318;21.898;2023-03-03T11:27:00;43.0;;;34.0;;
21120;SDS011;12519;43.318;21.898;2023-03-03T11:33:05;29.0;;;23.0;;
21120;SDS011;12519;43.318;21.898;2023-03-03T11:38:13;29.0;;;23.0;;
21120;SDS011;12519;43.318;21.898;2023-03-03T11:43:34;20.0;;;17.0;;
21120;SDS011;12519;43.318;21.898;2023-03-03T11:48:45;20.0;;;17.0;;
21120;SDS011;12519;43.318;21.898;2023-03-03T11:53:57;12.0;;;11.0;;
21120;SDS011;12519;43.318;21.898;2023-03-03T12:00:19;12.0;;;11.0;;
21120;SDS011;12519;43.318;21.898;2023-03-03T12:05:45;14.0;;;13.0;;
21120;SDS011;12519;43.318;21.898;2023-03-03T12:11:42;16.0;;;15.0;;
21120;SDS011;12519;43.318;21.898;2023-03-03T12:16:50;16.0;;;15.0;;
21120;SDS011;12519;43.318;21.898;2023-03-03T12:22:03;14.0;;;14.0;;
21120;SDS011;12519;43.318;21.898;2023-03-03T12:27:18;14.0;;;14.0;;
21120;SDS011;12519;43.318;21.898;2023-03-03T12:32:39;13.0;;;12.0;;
21120;SDS011;12519;43.318;21.898;2023-03-03T12:38:28;13.0;;;12.0;;
21120;SDS011;12519;43.318;21.898;2023-03-03T12:43:53;12.0;;;11.0;;
21120;SDS011;12519;43.318;21.898;2023-03-03T12:49:03;12.0;;;11.0;;
21120;SDS011;12519;43.318;21.898;2023-03-03T12:53:44;11.0;;;10.0;;
21120;SDS011;12519;43.318;21.898;2023-03-03T12:59:41;11.0;;;10.0;;
21120;SDS011;12519;43.318;21.898;2023-03-03T13:05:23;14.0;;;13.0;;
21120;SDS011;12519;43.318;21.898;2023-03-03T13:10:43;14.0;;;13.0;;
21120;SDS011;12519;43.318;21.898;2023-03-03T13:16:08;17.0;;;16.0;;
21120;SDS011;12519;43.318;21.898;2023-03-03T13:21:11;17.0;;;16.0;;
21120;SDS011;12519;43.318;21.898;2023-03-03T13:26:17;18.0;;;15.0;;
21120;SDS011;12519;43.318;21.898;2023-03-03T13:31:19;20.0;;;14.0;;
21120;SDS011;12519;43.318;21.898;2023-03-03T13:36:12;20.0;;;14.0;;
21120;SDS011;12519;43.318;21.898;2023-03-03T13:40:59;20.0;;;14.0;;
21120;SDS011;12519;43.318;21.898;2023-03-03T13:46:02;18.0;;;13.0;;
21120;SDS011;12519;43.318;21.898;2023-03-03T13:51:09;18.0;;;13.0;;
21120;SDS011;12519;43.318;21.898;2023-03-03T13:56:26;15.0;;;12.0;;
21120;SDS011;12519;43.318;21.898;2023-03-03T14:01:59;13.0;;;11.0;;
21120;SDS011;12519;43.318;21.898;2023-03-03T14:07:32;13.0;;;11.0;;
21120;SDS011;12519;43.318;21.898;2023-03-03T14:12:36;11.0;;;10.0;;
21120;SDS011;12519;43.318;21.898;2023-03-03T14:17:48;11.0;;;10.0;;
21120;SDS011;12519;43.318;21.898;2023-03-03T14:23:14;16.0;;;13.0;;
21120;SDS011;12519;43.318;21.898;2023-03-03T14:28:38;16.0;;;13.0;;
21120;SDS011;12519;43.318;21.898;2023-03-03T14:33:31;20.0;;;16.0;;
21120;SDS011;12519;43.318;21.898;2023-03-03T14:38:11;20.0;;;16.0;;
21120;SDS011;12519;43.318;21.898;2023-03-03T14:43:19;18.0;;;14.0;;
21120;SDS011;12519;43.318;21.898;2023-03-03T14:48:16;18.0;;;14.0;;
21120;SDS011;12519;43.318;21.898;2023-03-03T14:53:09;15.0;;;12.0;;
21120;SDS011;12519;43.318;21.898;2023-03-03T14:58:29;15.0;;;12.0;;
21120;SDS011;12519;43.318;21.898;2023-03-03T15:03:19;14.0;;;12.0;;
21120;SDS011;12519;43.318;21.898;2023-03-03T15:08:07;14.0;;;12.0;;
21120;SDS011;12519;43.318;21.898;2023-03-03T15:12:50;14.0;;;12.0;;
21120;SDS011;12519;43.318;21.898;2023-03-03T15:17:28;14.0;;;12.0;;
21120;SDS011;12519;43.318;21.898;2023-03-03T15:22:17;13.0;;;12.0;;
21120;SDS011;12519;43.318;21.898;2023-03-03T15:27:30;13.0;;;12.0;;
21120;SDS011;12519;43.318;21.898;2023-03-03T15:32:36;12.0;;;11.0;;
21120;SDS011;12519;43.318;21.898;2023-03-03T15:37:48;12.0;;;11.0;;
21120;SDS011;12519;43.318;21.898;2023-03-03T15:43:12;12.0;;;11.0;;
21120;SDS011;12519;43.318;21.898;2023-03-03T15:48:35;12.0;;;11.0;;
21120;SDS011;12519;43.318;21.898;2023-03-03T15:54:27;12.0;;;11.0;;
21120;SDS011;12519;43.318;21.898;2023-03-03T16:00:03;12.0;;;11.0;;
21120;SDS011;12519;43.318;21.898;2023-03-03T16:05:28;12.0;;;10.0;;
21120;SDS011;12519;43.318;21.898;2023-03-03T16:10:32;12.0;;;10.0;;
21120;SDS011;12519;43.318;21.898;2023-03-03T16:15:44;11.0;;;9.0;;
21120;SDS011;12519;43.318;21.898;2023-03-03T16:21:07;11.0;;;9.0;;
21120;SDS011;12519;43.318;21.898;2023-03-03T16:26:41;10.0;;;8.0;;
21120;SDS011;12519;43.318;21.898;2023-03-03T16:31:41;10.0;;;8.0;;
21120;SDS011;12519;43.318;21.898;2023-03-03T16:36:42;10.0;;;8.0;;
21120;SDS011;12519;43.318;21.898;2023-03-03T16:41:58;10.0;;;9.0;;
21120;SDS011;12519;43.318;21.898;2023-03-03T16:47:09;10.0;;;9.0;;
21120;SDS011;12519;43.318;21.898;2023-03-03T16:52:58;10.0;;;10.0;;
21120;SDS011;12519;43.318;21.898;2023-03-03T16:58:38;10.0;;;10.0;;
21120;SDS011;12519;43.318;21.898;2023-03-03T17:04:31;11.0;;;10.0;;
21120;SDS011;12519;43.318;21.898;2023-03-03T17:09:40;11.0;;;10.0;;
21120;SDS011;12519;43.318;21.898;2023-03-03T17:15:10;12.0;;;10.0;;
21120;SDS011;12519;43.318;21.898;2023-03-03T17:20:57;12.0;;;10.0;;
21120;SDS011;12519;43.318;21.898;2023-03-03T17:26:44;16.0;;;14.0;;
21120;SDS011;12519;43.318;21.898;2023-03-03T17:32:43;21.0;;;17.0;;
21120;SDS011;12519;43.318;21.898;2023-03-03T17:39:12;21.0;;;17.0;;
21120;SDS011;12519;43.318;21.898;2023-03-03T17:44:54;44.0;;;34.0;;
21120;SDS011;12519;43.318;21.898;2023-03-03T17:49:53;44.0;;;34.0;;
21120;SDS011;12519;43.318;21.898;2023-03-03T17:55:26;68.0;;;50.0;;
21120;SDS011;12519;43.318;21.898;2023-03-03T18:00:45;68.0;;;50.0;;
21120;SDS011;12519;43.318;21.898;2023-03-03T18:06:11;47.0;;;34.0;;
21120;SDS011;12519;43.318;21.898;2023-03-03T18:12:00;26.0;;;19.0;;
21120;SDS011;12519;43.318;21.898;2023-03-03T18:17:35;26.0;;;19.0;;
21120;SDS011;12519;43.318;21.898;2023-03-03T18:22:54;41.0;;;30.0;;
21120;SDS011;12519;43.318;21.898;2023-03-03T18:28:19;41.0;;;30.0;;
21120;SDS011;12519;43.318;21.898;2023-03-03T18:33:58;56.0;;;40.0;;
21120;SDS011;12519;43.318;21.898;2023-03-03T18:39:12;56.0;;;40.0;;
21120;SDS011;12519;43.318;21.898;2023-03-03T18:43:52;37.0;;;28.0;;
21120;SDS011;12519;43.318;21.898;2023-03-03T18:48:45;37.0;;;28.0;;
21120;SDS011;12519;43.318;21.898;2023-03-03T18:53:48;18.0;;;15.0;;
21120;SDS011;12519;43.318;21.898;2023-03-03T18:59:06;18.0;;;15.0;;
21120;SDS011;12519;43.318;21.898;2023-03-03T19:04:17;49.0;;;40.0;;
21120;SDS011;12519;43.318;21.898;2023-03-03T19:08:59;49.0;;;40.0;;
21120;SDS011;12519;43.318;21.898;2023-03-03T19:13:38;80.0;;;65.0;;
21120;SDS011;12519;43.318;21.898;2023-03-03T19:18:23;80.0;;;65.0;;
21120;SDS011;12519;43.318;21.898;2023-03-03T19:23:10;58.0;;;46.0;;
21120;SDS011;12519;43.318;21.898;2023-03-03T19:27:59;58.0;;;46.0;;
21120;SDS011;12519;43.318;21.898;2023-03-03T19:33:41;35.0;;;28.0;;
21120;SDS011;12519;43.318;21.898;2023-03-03T19:39:01;35.0;;;28.0;;
21120;SDS011;12519;43.318;21.898;2023-03-03T19:45:01;26.0;;;22.0;;
21120;SDS011;12519;43.318;21.898;2023-03-03T19:50:55;26.0;;;22.0;;
21120;SDS011;12519;43.318;21.898;2023-03-03T19:56:26;17.0;;;16.0;;
21120;SDS011;12519;43.318;21.898;2023-03-03T20:01:31;17.0;;;16.0;;
21120;SDS011;12519;43.318;21.898;2023-03-03T20:07:09;22.0;;;20.0;;
21120;SDS011;12519;43.318;21.898;2023-03-03T20:12:30;26.0;;;25.0;;
21120;SDS011;12519;43.318;21.898;2023-03-03T20:17:50;26.0;;;25.0;;
21120;SDS011;12519;43.318;21.898;2023-03-03T20:23:11;20.0;;;19.0;;
21120;SDS011;12519;43.318;21.898;2023-03-03T20:28:07;20.0;;;19.0;;
21120;SDS011;12519;43.318;21.898;2023-03-03T20:33:50;14.0;;;13.0;;
21120;SDS011;12519;43.318;21.898;2023-03-03T20:39:02;14.0;;;13.0;;
21120;SDS011;12519;43.318;21.898;2023-03-03T20:44:04;12.0;;;12.0;;
21120;SDS011;12519;43.318;21.898;2023-03-03T20:49:32;12.0;;;12.0;;
21120;SDS011;12519;43.318;21.898;2023-03-03T20:55:00;11.0;;;10.0;;
21120;SDS011;12519;43.318;21.898;2023-03-03T21:00:24;11.0;;;10.0;;
21120;SDS011;12519;43.318;21.898;2023-03-03T21:05:52;14.0;;;12.0;;
21120;SDS011;12519;43.318;21.898;2023-03-03T21:10:41;14.0;;;12.0;;
21120;SDS011;12519;43.318;21.898;2023-03-03T21:15:32;18.0;;;13.0;;
21120;SDS011;12519;43.318;21.898;2023-03-03T21:20:18;18.0;;;13.0;;
21120;SDS011;12519;43.318;21.898;2023-03-03T21:25:10;21.0;;;18.0;;
21120;SDS011;12519;43.318;21.898;2023-03-03T21:30:22;21.0;;;18.0;;
21120;SDS011;12519;43.318;21.898;2023-03-03T21:35:03;24.0;;;23.0;;
21120;SDS011;12519;43.318;21.898;2023-03-03T21:39:47;24.0;;;23.0;;
21120;SDS011;12519;43.318;21.898;2023-03-03T21:44:53;34.0;;;29.0;;
21120;SDS011;12519;43.318;21.898;2023-03-03T21:49:30;34.0;;;29.0;;
21120;SDS011;12519;43.318;21.898;2023-03-03T21:54:07;44.0;;;35.0;;
21120;SDS011;12519;43.318;21.898;2023-03-03T21:58:44;44.0;;;35.0;;
21120;SDS011;12519;43.318;21.898;2023-03-03T22:03:20;46.0;;;40.0;;
21120;SDS011;12519;43.318;21.898;2023-03-03T22:07:57;46.0;;;40.0;;
21120;SDS011;12519;43.318;21.898;2023-03-03T22:12:34;48.0;;;45.0;;
21120;SDS011;12519;43.318;21.898;2023-03-03T22:17:11;48.0;;;45.0;;
21120;SDS011;12519;43.318;21.898;2023-03-03T22:21:48;48.0;;;45.0;;
21120;SDS011;12519;43.318;21.898;2023-03-03T22:26:25;50.0;;;44.0;;
21120;SDS011;12519;43.318;21.898;2023-03-03T22:31:03;50.0;;;44.0;;
21120;SDS011;12519;43.318;21.898;2023-03-03T22:35:40;52.0;;;44.0;;
21120;SDS011;12519;43.318;21.898;2023-03-03T22:40:17;52.0;;;44.0;;
21120;SDS011;12519;43.318;21.898;2023-03-03T22:44:54;47.0;;;41.0;;
21120;SDS011;12519;43.318;21.898;2023-03-03T22:49:31;47.0;;;41.0;;
21120;SDS011;12519;43.318;21.898;2023-03-03T22:54:07;42.0;;;38.0;;
21120;SDS011;12519;43.318;21.898;2023-03-03T22:58:43;42.0;;;38.0;;
21120;SDS011;12519;43.318;21.898;2023-03-03T23:03:20;40.0;;;36.0;;
21120;SDS011;12519;43.318;21.898;2023-03-03T23:07:58;40.0;;;36.0;;
21120;SDS011;12519;43.318;21.898;2023-03-03T23:12:34;37.0;;;35.0;;
21120;SDS011;12519;43.318;21.898;2023-03-03T23:17:12;37.0;;;35.0;;
21120;SDS011;12519;43.318;21.898;2023-03-03T23:21:48;37.0;;;35.0;;
21120;SDS011;12519;43.318;21.898;2023-03-03T23:26:25;34.0;;;32.0;;
21120;SDS011;12519;43.318;21.898;2023-03-03T23:31:01;34.0;;;32.0;;
21120;SDS011;12519;43.318;21.898;2023-03-03T23:35:39;31.0;;;29.0;;
21120;SDS011;12519;43.318;21.898;2023-03-03T23:40:16;31.0;;;29.0;;
21120;SDS011;12519;43.318;21.898;2023-03-03T23:44:54;48.0;;;38.0;;
21120;SDS011;12519;43.318;21.898;2023-03-03T23:49:32;48.0;;;38.0;;
21120;SDS011;12519;43.318;21.898;2023-03-03T23:54:11;64.0;;;48.0;;
21120;SDS011;12519;43.318;21.898;2023-03-03T23:58:47;64.0;;;48.0;;
